Time;durP1;ratioP1;P1;durP2;ratioP2;P2;SDS_P1;SDS_P2;PMS_P1;PMS_P2;Temp;Humidity;BMP_temperature;BMP_pressure;BME280_temperature;BME280_humidity;BME280_pressure;Samples;Min_cycle;Max_cycle;Signal;HPM_P1;HPM_P2
2023/12/04 00:01:58;;;;;;;19.33;10.20;;;0.40;99.90;;;;;;7350387;32;20158;-57
2023/12/04 00:06:00;;;;;;;16.73;8.55;;;0.50;99.90;;;;;;7350299;32;20107;-57
2023/12/04 00:10:02;;;;;;;17.67;9.23;;;0.50;99.90;;;;;;7351485;32;20242;-56
2023/12/04 00:14:04;;;;;;;17.23;8.85;;;0.60;99.90;;;;;;7349892;32;20139;-57
2023/12/04 00:18:05;;;;;;;15.52;8.95;;;0.50;99.90;;;;;;7354269;32;20322;-57
2023/12/04 00:22:07;;;;;;;17.58;8.98;;;0.60;99.90;;;;;;7348584;32;20111;-57
2023/12/04 00:26:09;;;;;;;16.87;8.65;;;0.60;99.90;;;;;;7355203;32;20119;-57
2023/12/04 00:30:11;;;;;;;17.33;9.05;;;0.70;99.90;;;;;;7349838;32;20856;-57
2023/12/04 00:34:13;;;;;;;14.98;8.52;;;0.70;99.90;;;;;;7353370;32;20110;-57
2023/12/04 00:53:24;;;;;;;13.20;7.75;;;0.60;99.90;;;;;;7345483;32;20165;-56
2023/12/04 00:57:26;;;;;;;13.90;7.97;;;0.60;99.90;;;;;;7351314;32;20236;-56
2023/12/04 01:01:27;;;;;;;16.52;7.80;;;0.70;99.90;;;;;;7344972;32;20228;-56
2023/12/04 01:05:29;;;;;;;15.35;8.63;;;0.70;99.90;;;;;;7353180;32;20162;-56
2023/12/04 01:09:34;;;;;;;13.90;7.97;;;0.60;99.90;;;;;;7350207;32;20130;-56
2023/12/04 01:13:35;;;;;;;13.07;7.43;;;0.60;99.90;;;;;;7349359;32;20189;-57
2023/12/04 01:17:37;;;;;;;14.95;7.68;;;0.70;99.90;;;;;;7350297;32;20170;-56
2023/12/04 01:21:39;;;;;;;14.27;8.35;;;0.70;99.90;;;;;;7351754;32;20126;-57
2023/12/04 01:25:41;;;;;;;14.32;8.00;;;0.70;99.90;;;;;;7347831;32;20286;-56
2023/12/04 01:29:43;;;;;;;15.00;7.93;;;0.70;99.90;;;;;;7350932;32;20214;-56
2023/12/04 01:33:44;;;;;;;12.80;7.53;;;0.70;99.90;;;;;;7348008;32;20172;-57
2023/12/04 01:37:46;;;;;;;13.95;7.03;;;0.70;99.90;;;;;;7351673;32;20214;-57
2023/12/04 01:41:48;;;;;;;15.23;7.15;;;0.70;99.90;;;;;;7349648;32;20212;-57
2023/12/04 01:45:51;;;;;;;14.02;7.45;;;0.70;99.90;;;;;;7348819;32;20126;-57
2023/12/04 01:49:53;;;;;;;13.82;7.70;;;0.70;99.90;;;;;;7346273;32;20108;-56
2023/12/04 01:53:59;;;;;;;13.30;7.22;;;0.70;99.90;;;;;;7350364;32;20126;-56
2023/12/04 01:58:02;;;;;;;12.60;7.12;;;0.70;99.90;;;;;;7348671;32;20551;-57
2023/12/04 02:02:05;;;;;;;11.70;6.60;;;0.80;99.90;;;;;;7345051;32;20113;-56
2023/12/04 02:06:09;;;;;;;13.10;6.97;;;0.80;99.90;;;;;;7347079;32;20259;-57
2023/12/04 02:10:10;;;;;;;11.43;6.85;;;0.80;99.90;;;;;;7350650;32;20107;-56
2023/12/04 02:14:12;;;;;;;14.50;8.07;;;0.80;99.90;;;;;;7349288;32;20187;-56
2023/12/04 02:18:15;;;;;;;12.27;6.40;;;0.90;99.90;;;;;;7348239;32;20271;-58
2023/12/04 02:22:18;;;;;;;12.30;7.00;;;0.90;99.90;;;;;;7346070;32;23952;-57
2023/12/04 02:26:31;;;;;;;10.15;6.28;;;0.80;99.90;;;;;;7350705;32;20229;-56
2023/12/04 02:30:37;;;;;;;12.05;6.65;;;0.80;99.90;;;;;;7347795;32;20092;-56
2023/12/04 02:34:41;;;;;;;12.95;7.03;;;0.80;99.90;;;;;;7349649;32;20129;-57
2023/12/04 02:38:43;;;;;;;13.23;6.82;;;0.80;99.90;;;;;;7350434;32;20173;-56
2023/12/04 02:42:45;;;;;;;14.43;7.07;;;0.80;99.90;;;;;;7346626;32;20218;-56
2023/12/04 02:46:47;;;;;;;10.48;6.30;;;0.70;99.90;;;;;;7343755;32;20564;-56
2023/12/04 02:50:48;;;;;;;10.48;6.12;;;0.80;99.90;;;;;;7350928;32;20118;-57
2023/12/04 02:54:50;;;;;;;11.38;6.20;;;0.80;99.90;;;;;;7347439;32;20112;-56
2023/12/04 02:58:52;;;;;;;10.73;6.40;;;0.90;99.90;;;;;;7340751;32;20524;-56
2023/12/04 03:02:54;;;;;;;10.90;5.75;;;0.80;99.90;;;;;;7344434;32;20099;-56
2023/12/04 03:06:56;;;;;;;10.25;6.12;;;0.80;99.90;;;;;;7348924;32;20103;-57
2023/12/04 03:10:57;;;;;;;12.32;5.97;;;0.90;99.90;;;;;;7344979;32;20375;-56
2023/12/04 03:14:59;;;;;;;9.05;5.68;;;0.90;99.90;;;;;;7346214;32;20099;-55
2023/12/04 03:19:01;;;;;;;10.15;5.87;;;0.90;99.90;;;;;;7345684;32;20514;-55
2023/12/04 03:23:03;;;;;;;11.15;5.47;;;0.90;99.90;;;;;;7344581;32;20168;-56
2023/12/04 03:27:04;;;;;;;10.00;5.72;;;0.80;99.90;;;;;;7339334;32;20123;-57
2023/12/04 03:31:06;;;;;;;10.45;5.60;;;0.90;99.90;;;;;;7345170;32;20119;-56
2023/12/04 03:35:08;;;;;;;10.50;5.68;;;0.90;99.90;;;;;;7352918;32;20264;-59
2023/12/04 03:39:10;;;;;;;10.38;5.82;;;1.00;99.90;;;;;;7354621;32;20249;-55
2023/12/04 03:43:12;;;;;;;8.27;5.30;;;1.00;99.90;;;;;;7351692;32;20125;-56
2023/12/04 03:47:41;;;;;;;9.30;4.85;;;1.00;99.90;;;;;;7349689;32;20562;-56
2023/12/04 04:01:50;;;;;;;8.40;5.05;;;1.00;99.90;;;;;;7347836;32;20750;-57
2023/12/04 04:05:52;;;;;;;9.48;4.90;;;1.00;99.90;;;;;;7349634;32;20129;-59
2023/12/04 04:09:54;;;;;;;9.63;5.22;;;1.00;99.90;;;;;;7348800;32;20532;-57
2023/12/04 04:13:55;;;;;;;8.00;5.03;;;0.90;99.90;;;;;;7353198;32;20122;-57
2023/12/04 04:17:57;;;;;;;8.40;5.50;;;0.90;99.90;;;;;;7351620;32;20103;-54
2023/12/04 04:21:59;;;;;;;8.77;5.00;;;1.00;99.90;;;;;;7354894;32;20122;-57
2023/12/04 04:26:01;;;;;;;7.32;4.62;;;1.10;99.90;;;;;;7352922;32;20213;-57
2023/12/04 04:30:03;;;;;;;9.25;5.20;;;0.90;99.90;;;;;;7352235;32;20725;-57
2023/12/04 04:34:05;;;;;;;9.90;4.60;;;1.00;99.90;;;;;;7348309;32;20185;-57
2023/12/04 04:38:06;;;;;;;9.98;4.97;;;0.90;99.90;;;;;;7348821;32;20135;-57
2023/12/04 04:42:08;;;;;;;9.98;5.55;;;1.00;99.90;;;;;;7344986;32;20219;-58
2023/12/04 04:46:10;;;;;;;8.45;5.05;;;1.00;99.90;;;;;;7349252;32;20186;-55
2023/12/04 04:50:12;;;;;;;9.05;5.05;;;1.00;99.90;;;;;;7346677;32;20104;-56
2023/12/04 04:54:14;;;;;;;9.50;5.05;;;1.00;99.90;;;;;;7344365;32;20279;-56
2023/12/04 04:58:16;;;;;;;8.35;4.55;;;1.00;99.90;;;;;;7333934;32;20126;-56
2023/12/04 05:02:18;;;;;;;7.65;4.45;;;1.10;99.90;;;;;;7351266;32;20099;-57
2023/12/04 05:06:22;;;;;;;10.40;5.70;;;1.00;99.90;;;;;;7350252;32;20157;-58
2023/12/04 05:10:23;;;;;;;10.00;5.72;;;1.00;99.90;;;;;;7348527;32;20142;-57
2023/12/04 05:14:27;;;;;;;10.40;5.65;;;1.00;99.90;;;;;;7350414;32;20121;-57
2023/12/04 05:18:28;;;;;;;9.00;5.12;;;0.90;99.90;;;;;;7346362;32;20111;-56
2023/12/04 05:22:31;;;;;;;10.05;6.03;;;1.00;99.90;;;;;;7349083;32;20827;-56
2023/12/04 05:26:33;;;;;;;10.18;5.60;;;0.90;99.90;;;;;;7348200;32;20103;-56
2023/12/04 05:30:34;;;;;;;10.57;6.12;;;0.90;99.90;;;;;;7348044;32;20208;-56
2023/12/04 05:34:36;;;;;;;8.73;5.55;;;0.80;99.90;;;;;;7348921;32;20555;-56
2023/12/04 05:38:38;;;;;;;10.55;6.15;;;0.80;99.90;;;;;;7349667;32;20194;-57
2023/12/04 05:42:40;;;;;;;9.70;6.50;;;0.80;99.90;;;;;;7351783;32;20144;-56
2023/12/04 05:46:42;;;;;;;11.52;6.12;;;0.80;99.90;;;;;;7348051;32;20178;-56
2023/12/04 05:50:43;;;;;;;12.60;6.72;;;0.80;99.90;;;;;;7348066;32;20735;-56
2023/12/04 05:54:45;;;;;;;11.00;6.03;;;0.80;99.90;;;;;;7351424;32;20099;-56
2023/12/04 05:58:47;;;;;;;10.75;6.30;;;0.80;99.90;;;;;;7349706;32;20214;-56
2023/12/04 06:02:49;;;;;;;11.25;6.30;;;0.80;99.90;;;;;;7349558;32;20992;-56
2023/12/04 06:06:50;;;;;;;14.35;6.78;;;0.80;99.90;;;;;;7351900;32;20559;-58
2023/12/04 06:10:52;;;;;;;12.45;6.82;;;0.80;99.90;;;;;;7344563;32;20125;-56
2023/12/04 06:14:54;;;;;;;12.88;6.55;;;0.80;99.90;;;;;;7346444;32;20469;-56
2023/12/04 06:18:55;;;;;;;10.32;6.50;;;0.80;99.90;;;;;;7349077;32;20510;-57
2023/12/04 06:22:58;;;;;;;11.07;6.55;;;0.90;99.90;;;;;;7351683;32;20129;-56
2023/12/04 06:27:00;;;;;;;10.93;6.47;;;0.90;99.90;;;;;;7338971;32;20160;-57
2023/12/04 06:31:02;;;;;;;11.20;6.40;;;0.90;99.90;;;;;;7348041;32;20099;-56
2023/12/04 06:35:04;;;;;;;12.80;7.35;;;0.90;99.90;;;;;;7347781;32;20750;-57
2023/12/04 06:39:11;;;;;;;10.95;6.45;;;1.00;99.90;;;;;;7345930;32;20099;-56
2023/12/04 06:43:15;;;;;;;;;;;1.00;99.90;;;;;;7346309;32;20158;-55
2023/12/04 06:47:21;;;;;;;13.15;6.62;;;0.90;99.90;;;;;;7341819;32;20133;-56
2023/12/04 06:51:23;;;;;;;13.20;7.47;;;0.90;99.90;;;;;;7332754;32;20182;-55
2023/12/04 06:55:25;;;;;;;8.95;6.22;;;0.90;99.90;;;;;;7348655;32;20134;-53
2023/12/04 06:59:27;;;;;;;10.75;6.65;;;0.90;99.90;;;;;;7340196;32;20123;-55
2023/12/04 07:03:29;;;;;;;11.07;6.35;;;0.90;99.90;;;;;;7348061;32;20119;-57
2023/12/04 07:07:31;;;;;;;11.48;6.85;;;0.90;99.90;;;;;;7345885;32;20525;-55
2023/12/04 07:11:33;;;;;;;9.75;5.93;;;0.90;99.90;;;;;;7346810;32;20570;-54
2023/12/04 07:15:35;;;;;;;9.63;6.28;;;0.90;99.90;;;;;;7348398;32;20171;-56
2023/12/04 07:19:37;;;;;;;10.30;6.20;;;1.00;99.90;;;;;;7336778;32;20129;-54
2023/12/04 07:23:39;;;;;;;11.82;6.35;;;0.90;99.90;;;;;;7343657;32;20284;-55
2023/12/04 07:27:40;;;;;;;12.10;6.78;;;1.00;99.90;;;;;;7340417;32;20494;-56
2023/12/04 07:31:42;;;;;;;10.48;5.62;;;0.90;99.90;;;;;;7345738;32;20099;-55
2023/12/04 07:35:44;;;;;;;10.13;5.95;;;1.10;99.90;;;;;;7342879;32;20250;-55
2023/12/04 07:39:46;;;;;;;10.10;5.72;;;1.10;99.90;;;;;;7338335;32;20229;-54
2023/12/04 07:43:48;;;;;;;9.70;5.60;;;1.10;99.90;;;;;;7347466;32;20137;-55
2023/12/04 07:47:50;;;;;;;10.27;5.78;;;1.10;99.90;;;;;;7345022;32;20597;-56
2023/12/04 07:51:52;;;;;;;11.45;6.28;;;1.10;99.90;;;;;;7344858;32;20091;-55
2023/12/04 07:55:54;;;;;;;10.23;5.70;;;1.20;99.90;;;;;;7342932;32;20245;-56
2023/12/04 07:59:56;;;;;;;10.80;6.03;;;1.20;99.90;;;;;;7343151;32;20134;-56
2023/12/04 08:03:58;;;;;;;9.77;5.80;;;1.20;99.90;;;;;;7343722;32;20239;-57
2023/12/04 08:08:00;;;;;;;9.98;5.57;;;1.30;99.90;;;;;;7344574;32;20552;-56
2023/12/04 08:12:01;;;;;;;11.23;5.50;;;1.40;99.90;;;;;;7337080;32;20122;-56
2023/12/04 08:16:04;;;;;;;11.25;5.20;;;1.50;99.90;;;;;;7346659;32;20206;-55
2023/12/04 08:20:06;;;;;;;10.13;5.62;;;1.50;99.90;;;;;;7349933;32;20114;-57
2023/12/04 08:24:08;;;;;;;8.02;5.20;;;1.50;99.90;;;;;;7351066;32;20186;-57
2023/12/04 08:28:10;;;;;;;7.72;5.20;;;1.60;99.90;;;;;;7348817;32;20273;-56
2023/12/04 08:32:12;;;;;;;9.90;4.62;;;1.50;99.90;;;;;;7349208;32;20560;-57
2023/12/04 08:36:14;;;;;;;9.68;4.25;;;1.60;99.90;;;;;;7343805;32;20360;-56
2023/12/04 08:40:15;;;;;;;7.72;4.65;;;1.70;99.90;;;;;;7350059;32;20342;-56
2023/12/04 08:44:17;;;;;;;10.43;3.95;;;1.80;99.90;;;;;;7348648;32;20123;-55
2023/12/04 08:48:19;;;;;;;7.15;4.45;;;1.80;99.90;;;;;;7347598;32;20123;-56
2023/12/04 08:52:21;;;;;;;7.37;4.12;;;1.80;99.90;;;;;;7344599;32;20176;-56
2023/12/04 08:56:23;;;;;;;7.97;4.03;;;1.90;99.90;;;;;;7348788;32;20269;-56
2023/12/04 09:00:32;;;;;;;8.95;4.07;;;2.00;99.90;;;;;;7340873;32;20520;-56
2023/12/04 09:04:34;;;;;;;7.75;4.28;;;2.00;99.90;;;;;;7348418;32;20174;-57
2023/12/04 09:08:36;;;;;;;9.30;4.28;;;2.10;99.90;;;;;;7349585;32;20138;-56
2023/12/04 09:12:47;;;;;;;5.87;3.80;;;2.10;99.90;;;;;;7349570;32;20122;-57
2023/12/04 09:16:48;;;;;;;6.10;3.87;;;2.10;99.90;;;;;;7343932;32;20263;-56
2023/12/04 09:20:50;;;;;;;7.85;4.20;;;2.20;99.90;;;;;;7348871;32;20228;-56
2023/12/04 09:24:52;;;;;;;7.18;3.83;;;2.20;99.90;;;;;;7351261;32;20119;-56
2023/12/04 09:28:54;;;;;;;8.15;4.28;;;2.30;99.90;;;;;;7344827;32;20107;-55
2023/12/04 09:32:55;;;;;;;5.47;3.75;;;2.40;99.90;;;;;;7345470;32;20790;-56
2023/12/04 09:36:57;;;;;;;7.55;4.05;;;2.50;99.90;;;;;;7351341;32;20104;-56
2023/12/04 09:41:12;;;;;;;6.20;3.60;;;2.60;99.90;;;;;;7341783;32;20227;-57
2023/12/04 09:45:15;;;;;;;7.30;3.12;;;2.60;99.90;;;;;;7347848;32;20254;-58
2023/12/04 09:49:18;;;;;;;6.60;3.55;;;2.60;99.90;;;;;;7344783;32;20122;-57
2023/12/04 09:53:21;;;;;;;6.60;3.60;;;2.50;99.90;;;;;;7347337;32;20195;-57
2023/12/04 09:57:27;;;;;;;5.18;2.95;;;2.60;99.90;;;;;;7348344;32;20083;-57
2023/12/04 10:01:30;;;;;;;6.10;3.55;;;2.50;99.90;;;;;;7347680;32;20543;-57
2023/12/04 10:05:33;;;;;;;5.15;3.37;;;2.60;99.90;;;;;;7345436;32;20201;-57
2023/12/04 10:09:34;;;;;;;6.72;3.97;;;2.60;99.90;;;;;;7345988;32;20217;-57
2023/12/04 10:13:36;;;;;;;6.15;3.45;;;2.80;99.90;;;;;;7349287;32;20423;-56
2023/12/04 10:17:58;;;;;;;7.18;3.90;;;2.60;99.90;;;;;;7345429;32;20103;-57
2023/12/04 10:22:00;;;;;;;7.05;3.75;;;2.60;99.90;;;;;;7345805;32;20216;-57
2023/12/04 10:26:02;;;;;;;5.70;3.72;;;2.70;99.90;;;;;;7346635;32;20210;-56
2023/12/04 10:30:07;;;;;;;7.20;3.90;;;2.70;99.90;;;;;;7340416;32;20106;-58
2023/12/04 10:34:09;;;;;;;8.20;3.60;;;2.80;99.90;;;;;;7349635;32;20542;-56
2023/12/04 10:38:14;;;;;;;7.65;3.87;;;2.90;99.90;;;;;;7345082;32;20508;-57
2023/12/04 10:42:32;;;;;;;6.87;4.32;;;2.80;99.90;;;;;;7343556;32;20103;-57
2023/12/04 10:46:36;;;;;;;7.10;3.90;;;2.80;99.90;;;;;;7344017;32;20124;-57
2023/12/04 10:50:39;;;;;;;8.15;4.12;;;2.70;99.90;;;;;;7341221;32;20547;-57
2023/12/04 10:54:41;;;;;;;7.78;3.78;;;2.70;99.90;;;;;;7335562;32;20468;-59
2023/12/04 10:58:48;;;;;;;7.18;4.05;;;2.70;99.90;;;;;;7342952;32;20115;-56
2023/12/04 11:02:52;;;;;;;;;;;2.60;99.90;;;;;;7340508;32;20143;-56
2023/12/04 11:06:55;;;;;;;8.52;4.12;;;2.60;99.90;;;;;;7342026;32;20017;-56
2023/12/04 11:11:07;;;;;;;7.70;4.50;;;2.60;99.90;;;;;;7346054;32;20095;-57
2023/12/04 11:15:13;;;;;;;7.05;4.57;;;2.50;99.90;;;;;;7341789;32;20119;-57
2023/12/04 11:19:20;;;;;;;8.90;5.15;;;2.60;99.90;;;;;;7340628;32;20234;-57
2023/12/04 11:23:23;;;;;;;9.70;4.90;;;2.60;99.90;;;;;;7330694;32;20122;-56
2023/12/04 11:27:25;;;;;;;9.18;4.55;;;2.60;99.90;;;;;;7330546;32;20599;-56
2023/12/04 11:31:28;;;;;;;7.07;4.60;;;2.50;99.90;;;;;;7344059;32;20495;-57
2023/12/04 11:35:30;;;;;;;7.62;4.68;;;2.50;99.90;;;;;;7330717;32;20118;-57
2023/12/04 11:39:35;;;;;;;8.55;4.72;;;2.50;99.90;;;;;;7346545;32;20126;-56
2023/12/04 11:43:37;;;;;;;8.82;5.18;;;2.50;99.90;;;;;;7338347;32;20442;-57
2023/12/04 11:47:58;;;;;;;11.85;5.47;;;2.40;99.90;;;;;;7340211;32;20150;-57
2023/12/04 11:52:04;;;;;;;11.00;4.78;;;2.40;99.90;;;;;;7349381;32;20091;-57
2023/12/04 11:56:12;;;;;;;11.45;5.50;;;2.40;99.90;;;;;;7342831;32;20240;-56
2023/12/04 12:00:18;;;;;;;9.98;5.78;;;2.30;99.90;;;;;;7346078;32;20134;-57
2023/12/04 12:04:20;;;;;;;10.43;6.17;;;2.30;99.90;;;;;;7348044;32;20198;-56
2023/12/04 12:08:23;;;;;;;9.68;6.12;;;2.30;99.90;;;;;;7349554;32;20331;-57
2023/12/04 12:12:28;;;;;;;12.27;6.15;;;2.40;99.90;;;;;;7345030;32;20167;-57
2023/12/04 12:16:32;;;;;;;13.45;6.22;;;2.30;99.90;;;;;;7343633;32;20206;-56
2023/12/04 12:20:37;;;;;;;7.82;5.43;;;2.40;99.90;;;;;;7351929;32;20118;-55
2023/12/04 12:24:39;;;;;;;9.23;5.50;;;2.40;99.90;;;;;;7348572;32;20461;-57
2023/12/04 12:28:41;;;;;;;10.15;6.05;;;2.40;99.90;;;;;;7341665;32;20104;-56
2023/12/04 12:32:43;;;;;;;9.07;5.95;;;2.40;99.90;;;;;;7350431;32;20182;-55
2023/12/04 12:36:45;;;;;;;12.70;6.78;;;2.30;99.90;;;;;;7352916;32;20118;-57
2023/12/04 12:40:46;;;;;;;8.68;5.82;;;2.20;99.90;;;;;;7352558;32;20366;-57
2023/12/04 12:44:48;;;;;;;9.18;5.32;;;2.10;99.90;;;;;;7348719;32;20623;-56
2023/12/04 12:48:51;;;;;;;11.07;5.95;;;2.20;99.90;;;;;;7347163;32;20229;-56
2023/12/04 12:52:54;;;;;;;10.38;5.78;;;2.30;99.90;;;;;;7341283;32;20118;-56
2023/12/04 12:56:56;;;;;;;9.45;5.80;;;2.30;99.90;;;;;;7348134;32;20143;-56
2023/12/04 13:00:58;;;;;;;10.63;6.25;;;2.20;99.90;;;;;;7332465;32;20202;-56
2023/12/04 13:04:59;;;;;;;8.77;5.60;;;2.20;99.90;;;;;;7346358;32;20129;-57
2023/12/04 13:09:06;;;;;;;9.15;5.40;;;2.20;99.90;;;;;;7348905;32;20122;-56
2023/12/04 13:13:14;;;;;;;10.60;5.57;;;2.30;99.90;;;;;;7350216;32;20484;-56
2023/12/04 13:17:16;;;;;;;7.65;4.87;;;2.40;99.90;;;;;;7353147;32;20476;-57
2023/12/04 13:21:20;;;;;;;9.93;5.15;;;2.60;99.90;;;;;;7352131;32;20263;-56
2023/12/04 13:25:22;;;;;;;8.95;5.45;;;2.60;99.90;;;;;;7346030;32;20178;-56
2023/12/04 13:29:28;;;;;;;9.25;5.37;;;2.70;99.90;;;;;;7334731;32;20096;-56
2023/12/04 13:33:29;;;;;;;9.65;5.28;;;2.50;99.90;;;;;;7349433;32;20110;-56
2023/12/04 13:37:32;;;;;;;8.25;4.90;;;2.40;99.90;;;;;;7348565;32;20117;-56
2023/12/04 13:45:55;;;;;;;8.35;4.82;;;2.30;99.90;;;;;;7345253;32;20182;-57
2023/12/04 13:49:58;;;;;;;8.65;5.32;;;2.20;99.90;;;;;;7343930;32;20092;-56
2023/12/04 13:54:09;;;;;;;11.35;5.18;;;2.20;99.90;;;;;;7349289;32;20107;-56
2023/12/04 13:58:36;;;;;;;8.75;4.68;;;2.30;99.90;;;;;;7347455;32;20193;-57
2023/12/04 14:02:35;;;;;;;9.45;4.50;;;2.30;99.90;;;;;;7342979;32;20242;-57
2023/12/04 14:06:37;;;;;;;7.82;4.30;;;2.30;99.90;;;;;;7346504;32;20257;-58
2023/12/04 14:10:39;;;;;;;7.57;4.35;;;2.30;99.90;;;;;;7348584;32;20099;-58
2023/12/04 14:14:41;;;;;;;5.82;3.95;;;2.30;99.90;;;;;;7342542;32;20305;-56
2023/12/04 14:18:43;;;;;;;6.65;4.25;;;2.30;99.90;;;;;;7340663;32;20100;-56
2023/12/04 14:22:46;;;;;;;6.30;4.05;;;2.40;99.90;;;;;;7345992;32;20525;-55
2023/12/04 14:26:53;;;;;;;5.65;3.70;;;2.40;99.90;;;;;;7344489;32;20133;-56
2023/12/04 14:30:55;;;;;;;5.57;3.53;;;2.40;99.90;;;;;;7340560;32;20450;-56
2023/12/04 14:34:57;;;;;;;6.22;4.18;;;2.40;99.90;;;;;;7342025;32;20138;-57
2023/12/04 14:38:59;;;;;;;6.90;3.95;;;2.30;99.90;;;;;;7337654;32;20210;-55
2023/12/04 14:43:02;;;;;;;6.07;3.83;;;2.40;99.90;;;;;;7340335;32;20528;-55
2023/12/04 14:47:05;;;;;;;6.32;3.83;;;2.50;99.90;;;;;;7336980;32;20099;-55
2023/12/04 14:51:11;;;;;;;6.57;3.95;;;2.40;99.90;;;;;;7347738;32;20109;-55
2023/12/04 15:08:06;;;;;;;6.07;4.05;;;2.40;99.90;;;;;;7334074;32;20126;-55
2023/12/04 15:12:23;;;;;;;7.53;4.07;;;2.30;99.90;;;;;;7342725;32;20192;-57
2023/12/04 15:24:29;;;;;;;6.87;3.92;;;2.30;99.90;;;;;;7341155;32;20121;-58
2023/12/04 15:28:32;;;;;;;6.82;3.72;;;2.20;99.90;;;;;;7345504;32;20191;-57
2023/12/04 15:32:34;;;;;;;5.97;3.62;;;2.30;99.90;;;;;;7343551;32;20177;-57
2023/12/04 15:36:35;;;;;;;5.82;3.90;;;2.40;99.90;;;;;;7343750;32;20193;-56
2023/12/04 15:40:37;;;;;;;5.45;3.58;;;2.30;99.90;;;;;;7341863;32;20096;-56
2023/12/04 15:44:39;;;;;;;6.30;3.80;;;2.40;99.90;;;;;;7342793;32;20171;-54
2023/12/04 15:48:41;;;;;;;5.55;3.85;;;2.30;99.90;;;;;;7338189;32;20120;-53
2023/12/04 15:52:43;;;;;;;6.43;3.67;;;2.20;99.90;;;;;;7345366;32;20194;-55
2023/12/04 15:56:45;;;;;;;5.65;4.05;;;2.10;99.90;;;;;;7335743;32;20122;-55
2023/12/04 16:00:47;;;;;;;8.48;4.18;;;1.90;99.90;;;;;;7340982;32;20099;-55
2023/12/04 16:04:48;;;;;;;6.62;4.22;;;1.70;99.90;;;;;;7345051;32;20275;-55
2023/12/04 16:08:50;;;;;;;7.28;4.40;;;1.60;99.90;;;;;;7341437;32;20977;-55
2023/12/04 16:12:52;;;;;;;7.32;4.72;;;1.60;99.90;;;;;;7341570;32;20516;-56
2023/12/04 16:16:54;;;;;;;6.95;4.60;;;1.40;99.90;;;;;;7325198;32;20447;-57
2023/12/04 16:20:56;;;;;;;8.25;4.60;;;1.50;99.90;;;;;;7328698;32;20122;-55
2023/12/04 16:24:58;;;;;;;8.88;3.97;;;1.40;99.90;;;;;;7342393;32;20122;-55
2023/12/04 16:29:00;;;;;;;7.55;4.70;;;1.50;99.90;;;;;;7337483;32;20549;-56
2023/12/04 16:33:03;;;;;;;8.85;4.93;;;1.50;99.90;;;;;;7337227;32;20197;-54
2023/12/04 16:37:04;;;;;;;7.62;4.90;;;1.50;99.90;;;;;;7342950;32;20107;-56
2023/12/04 16:41:07;;;;;;;7.65;4.60;;;1.50;99.90;;;;;;7348767;32;20807;-55
2023/12/04 16:45:09;;;;;;;7.00;4.87;;;1.40;99.90;;;;;;7349859;32;20529;-56
2023/12/04 16:49:14;;;;;;;7.47;4.65;;;1.50;99.90;;;;;;7348492;32;20208;-57
2023/12/04 16:53:16;;;;;;;7.90;4.68;;;1.50;99.90;;;;;;7353019;32;20183;-57
2023/12/04 16:57:18;;;;;;;6.32;4.85;;;1.50;99.90;;;;;;7345574;32;20130;-55
2023/12/04 17:01:19;;;;;;;6.78;4.87;;;1.60;99.90;;;;;;7343352;32;20126;-55
2023/12/04 17:05:21;;;;;;;7.40;4.93;;;1.60;99.90;;;;;;7347114;32;20249;-56
2023/12/04 17:09:23;;;;;;;7.12;5.00;;;1.70;99.90;;;;;;7350070;32;20083;-56
2023/12/04 17:13:25;;;;;;;8.95;5.93;;;1.70;99.90;;;;;;7343816;32;20122;-56
2023/12/04 17:17:27;;;;;;;7.20;5.18;;;1.60;99.90;;;;;;7349026;32;20191;-57
2023/12/04 17:21:29;;;;;;;9.57;5.32;;;1.60;99.90;;;;;;7346354;32;20580;-55
2023/12/04 17:25:33;;;;;;;7.60;5.20;;;1.60;99.90;;;;;;7336095;32;20275;-55
2023/12/04 17:29:36;;;;;;;7.95;5.32;;;1.70;99.90;;;;;;7329722;32;20094;-55
2023/12/04 17:33:38;;;;;;;9.43;5.22;;;1.70;99.90;;;;;;7351775;32;20476;-56
2023/12/04 17:37:40;;;;;;;15.43;5.60;;;1.70;99.90;;;;;;7340129;32;20241;-55
2023/12/04 17:41:45;;;;;;;7.93;5.60;;;1.80;99.90;;;;;;7347871;32;20098;-55
2023/12/04 17:45:46;;;;;;;10.40;5.93;;;1.70;99.90;;;;;;7345714;32;20201;-57
2023/12/04 17:49:48;;;;;;;7.47;5.37;;;1.70;99.90;;;;;;7345367;32;20240;-56
2023/12/04 17:53:50;;;;;;;12.02;5.90;;;1.80;99.90;;;;;;7344385;32;20731;-55
2023/12/04 17:57:52;;;;;;;7.95;5.32;;;1.80;99.90;;;;;;7351108;32;20160;-55
2023/12/04 18:01:57;;;;;;;9.25;6.25;;;1.80;99.90;;;;;;7343189;32;20113;-56
2023/12/04 18:05:58;;;;;;;10.00;6.43;;;1.80;99.90;;;;;;7340815;32;20115;-56
2023/12/04 18:10:02;;;;;;;10.20;6.20;;;1.80;99.90;;;;;;7340746;32;20130;-57
2023/12/04 18:14:04;;;;;;;9.65;6.22;;;1.80;99.90;;;;;;7346660;32;20121;-57
2023/12/04 18:18:06;;;;;;;8.77;5.85;;;1.80;99.90;;;;;;7347825;32;20796;-57
2023/12/04 18:22:08;;;;;;;10.63;5.90;;;1.90;99.90;;;;;;7338194;32;20186;-55
2023/12/04 18:26:11;;;;;;;10.05;5.93;;;1.90;99.90;;;;;;7338807;32;20171;-55
2023/12/04 18:30:15;;;;;;;10.65;6.10;;;1.90;99.90;;;;;;7341376;32;20099;-55
2023/12/04 18:34:19;;;;;;;10.65;6.15;;;1.90;99.90;;;;;;7343653;32;20159;-55
2023/12/04 18:38:35;;;;;;;8.40;6.45;;;1.90;99.90;;;;;;7341191;32;20126;-55
2023/12/04 18:42:37;;;;;;;10.00;6.82;;;1.80;99.90;;;;;;7348292;32;20240;-55
2023/12/04 18:46:40;;;;;;;10.43;6.62;;;1.90;99.90;;;;;;7341506;32;20526;-57
2023/12/04 18:50:42;;;;;;;9.32;6.45;;;1.90;99.90;;;;;;7341195;32;20535;-55
2023/12/04 18:54:44;;;;;;;8.80;6.35;;;2.00;99.90;;;;;;7338935;32;20869;-57
2023/12/04 18:58:46;;;;;;;11.48;6.75;;;2.00;99.90;;;;;;7334388;32;20764;-55
2023/12/04 19:02:48;;;;;;;10.02;7.30;;;2.10;99.90;;;;;;7341907;32;20108;-55
2023/12/04 19:06:50;;;;;;;10.52;7.35;;;2.10;99.90;;;;;;7346710;32;20118;-55
2023/12/04 19:10:51;;;;;;;12.35;7.35;;;2.10;99.90;;;;;;7347125;32;20255;-54
2023/12/04 19:14:53;;;;;;;10.82;7.37;;;2.10;99.90;;;;;;7346780;32;20258;-57
2023/12/04 19:18:55;;;;;;;10.30;6.95;;;2.10;99.90;;;;;;7343137;32;20285;-57
2023/12/04 19:23:00;;;;;;;11.80;7.72;;;2.20;99.90;;;;;;7343932;32;20087;-57
2023/12/04 19:27:03;;;;;;;10.43;6.80;;;2.20;99.90;;;;;;7340367;32;20210;-57
2023/12/04 19:31:05;;;;;;;10.65;7.15;;;2.20;99.90;;;;;;7345372;32;20095;-57
2023/12/04 19:35:07;;;;;;;10.20;7.05;;;2.20;99.90;;;;;;7340118;32;20494;-57
2023/12/04 19:39:09;;;;;;;9.05;6.03;;;2.20;99.90;;;;;;7343580;32;20099;-57
2023/12/04 19:43:13;;;;;;;9.88;6.68;;;2.30;99.90;;;;;;7340795;32;20100;-57
2023/12/04 19:47:15;;;;;;;10.07;6.12;;;2.30;99.90;;;;;;7338495;32;20226;-60
2023/12/04 19:51:17;;;;;;;9.90;6.32;;;2.40;99.90;;;;;;7334008;32;20122;-57
2023/12/04 19:55:19;;;;;;;8.93;5.93;;;2.50;99.90;;;;;;7333183;32;20134;-56
2023/12/04 19:59:22;;;;;;;8.98;5.87;;;2.40;99.90;;;;;;7346038;32;20469;-56
2023/12/04 20:03:24;;;;;;;9.02;6.32;;;2.50;99.90;;;;;;7339318;32;20465;-56
2023/12/04 20:07:26;;;;;;;8.30;5.87;;;2.40;99.90;;;;;;7347049;32;20098;-57
2023/12/04 20:11:28;;;;;;;8.02;5.65;;;2.50;99.90;;;;;;7347832;32;20178;-56
2023/12/04 20:15:30;;;;;;;7.90;5.85;;;2.60;99.90;;;;;;7348188;32;20293;-56
2023/12/04 20:19:32;;;;;;;7.85;6.07;;;2.60;99.90;;;;;;7355952;32;20198;-55
2023/12/04 20:23:35;;;;;;;7.55;5.55;;;2.50;99.90;;;;;;7351144;32;20190;-54
2023/12/04 20:27:36;;;;;;;9.35;6.07;;;2.70;99.90;;;;;;7348949;32;20159;-55
2023/12/04 20:31:38;;;;;;;8.93;5.65;;;2.70;99.90;;;;;;7351509;32;20119;-54
2023/12/04 20:35:40;;;;;;;7.47;5.35;;;2.70;99.90;;;;;;7352756;32;20516;-54
2023/12/04 20:39:41;;;;;;;9.38;5.82;;;2.80;99.90;;;;;;7350619;32;20547;-55
2023/12/04 20:43:43;;;;;;;9.68;6.30;;;2.80;99.90;;;;;;7346036;32;20543;-55
2023/12/04 20:47:46;;;;;;;8.10;6.03;;;2.80;99.90;;;;;;7344971;32;20110;-54
2023/12/04 20:51:48;;;;;;;9.23;6.15;;;2.70;99.90;;;;;;7349303;32;20175;-54
2023/12/04 20:55:50;;;;;;;9.60;6.07;;;2.70;99.90;;;;;;7348536;32;20126;-54
2023/12/04 20:59:52;;;;;;;7.43;5.65;;;2.80;99.90;;;;;;7350362;32;20170;-55
2023/12/04 21:03:53;;;;;;;7.85;6.00;;;2.90;99.90;;;;;;7346996;32;20160;-55
2023/12/04 21:07:55;;;;;;;7.80;5.75;;;2.70;99.90;;;;;;7347500;32;20107;-55
2023/12/04 21:11:57;;;;;;;8.88;6.03;;;2.80;99.90;;;;;;7351626;32;20103;-56
2023/12/04 21:15:59;;;;;;;8.95;5.43;;;2.80;99.90;;;;;;7336707;32;20111;-55
2023/12/04 21:20:01;;;;;;;9.48;5.97;;;2.80;99.90;;;;;;7347826;32;20091;-55
2023/12/04 21:24:03;;;;;;;8.07;5.78;;;2.90;99.90;;;;;;7337189;32;20213;-55
2023/12/04 21:28:06;;;;;;;8.43;5.72;;;2.90;99.90;;;;;;7348188;32;20118;-55
2023/12/04 21:32:07;;;;;;;9.80;6.80;;;2.90;99.90;;;;;;7346497;32;20227;-54
2023/12/04 21:36:10;;;;;;;8.13;5.43;;;3.00;99.90;;;;;;7344253;32;20497;-54
2023/12/04 21:40:12;;;;;;;8.50;6.20;;;3.00;99.90;;;;;;7343810;32;20845;-55
2023/12/04 21:44:14;;;;;;;9.98;6.03;;;3.00;99.90;;;;;;7349766;32;20103;-55
2023/12/04 21:48:15;;;;;;;10.60;6.18;;;3.10;99.90;;;;;;7339918;32;20548;-55
2023/12/04 21:52:18;;;;;;;8.95;6.40;;;3.00;99.90;;;;;;7345717;32;20122;-54
2023/12/04 21:56:19;;;;;;;9.13;6.53;;;3.00;99.90;;;;;;7349726;32;20119;-54
2023/12/04 22:00:24;;;;;;;6.97;4.15;;;3.10;99.90;;;;;;7346981;32;20165;-55
2023/12/04 22:04:25;;;;;;;8.20;6.05;;;3.10;99.90;;;;;;7348282;32;20204;-55